KPBF/PBF METAR and TAF weather

Enter ICAO airport designator
Station Type Date Time Source
KPBF METAR 2020/01/19 13:53 UTC NOAA

KPBF 191353Z AUTO 31005KT 10SM CLR 01/M09 A3051 RMK AO2 SLP331 T00061089


Station Type Date Time Source
KPBF Decoded METAR 2020/01/19 13:53 UTC NOAA

PINE BLUFF GRIDER FIELD, AR, United States (KPBF) 34-11N 091-56W 62M
Jan 19, 2020 - 08:53 AM EST / 2020.01.19 1353 UTC
Wind: from the NW (310 degrees) at 6 MPH (5 KT):0
Visibility: 10 mile(s):0
Sky conditions: clear
Temperature: 33.1 F (0.6 C)
Windchill: 28 F (-2 C):1
Dew Point: 16.0 F (-8.9 C)
Relative Humidity: 48%
Pressure (altimeter): 30.51 in. Hg (1033 hPa)
ob: KPBF 191353Z AUTO 31005KT 10SM CLR 01/M09 A3051 RMK AO2 SLP331 T00061089
cycle: 14

Station Type Date Time Source
KPBF TAF 2020/01/19 13:15 UTC NOAA

TAF
AMD KPBF 191311Z 1913/2012 32005KT P6SM SKC
FM191500 35011G19KT P6SM SKC
FM200000 35005KT P6SM SKC

Example: see airport list